Airport View

Enter AWOS ICAO identifier for current METAR.

KFNL for example

KAEJ 271920Z AUTO 29011G18KT 10SM CLR 14/M01 A3015 RMK AO2 LTG DSNT N THRU E T01361015

27 May 2017 19:21

Frequency: 132.925

Phone: 719-395-2599

Other Area AWOS: K7BM - KANK - KMYP - KLXV

TAF AMD KASE 271839Z 2719/2818 19006KT P6SM VCTS BKN030CB TEMPO 2719/2720 01007G15KT -TSRA OVC020CB FM272000 33007KT P6SM VCTS BKN060CB FM280000 33007KT P6SM VCSH BKN110 FM280400 23004KT P6SM SCT150 FM280800 17004KT P6SM FEW200 FM281700 35004KT P6SM FEW250